createdAt,value
2023-04-25T00:02:39.476Z,10.58
2023-04-25T00:07:44.607Z,10.61
2023-04-25T00:12:47.928Z,10.63
2023-04-25T00:17:54.328Z,10.64
2023-04-25T00:22:58.460Z,10.58
2023-04-25T00:28:01.887Z,10.45
2023-04-25T00:33:07.047Z,10.33
2023-04-25T00:38:11.134Z,10.20
2023-04-25T00:43:14.320Z,10.07
2023-04-25T00:48:19.837Z,9.96
2023-04-25T00:53:23.784Z,9.86
2023-04-25T00:58:27.484Z,9.79
2023-04-25T01:03:37.524Z,9.73
2023-04-25T01:08:42.964Z,9.67
2023-04-25T01:13:46.516Z,9.57
2023-04-25T01:18:52.762Z,9.50
2023-04-25T01:23:59.898Z,9.46
2023-04-25T01:29:04.935Z,9.35
2023-04-25T01:34:08.518Z,9.26
2023-04-25T01:39:13.510Z,9.16
2023-04-25T01:44:17.646Z,9.11
2023-04-25T01:49:21.982Z,9.01
2023-04-25T01:54:26.788Z,8.95
2023-04-25T01:59:30.278Z,8.87
2023-04-25T02:04:35.263Z,8.80
2023-04-25T02:09:40.761Z,8.77
2023-04-25T02:14:44.231Z,8.73
2023-04-25T02:19:47.590Z,8.67
2023-04-25T02:24:53.335Z,8.59
2023-04-25T02:29:56.591Z,8.54
2023-04-25T02:35:04.827Z,8.51
2023-04-25T02:40:12.196Z,8.46
2023-04-25T02:45:15.589Z,8.40
2023-04-25T02:50:19.958Z,8.36
2023-04-25T02:55:27.065Z,8.29
2023-04-25T03:00:31.535Z,8.25
2023-04-25T03:05:36.294Z,8.20
2023-04-25T03:10:41.230Z,8.16
2023-04-25T03:15:44.926Z,8.11
2023-04-25T03:20:49.051Z,8.07
2023-04-25T03:25:54.296Z,8.05
2023-04-25T03:30:57.747Z,8.02
2023-04-25T03:36:01.031Z,7.99
2023-04-25T03:41:06.784Z,7.95
2023-04-25T03:46:10.116Z,7.90
2023-04-25T03:51:13.877Z,7.86
2023-04-25T03:56:18.793Z,7.84
2023-04-25T04:01:22.650Z,7.82
2023-04-25T04:06:26.710Z,7.80
2023-04-25T04:11:32.568Z,7.79
2023-04-25T04:16:41.206Z,7.80
2023-04-25T04:21:45.491Z,7.82
2023-04-25T04:26:52.074Z,7.85
2023-04-25T04:31:57.044Z,7.87
2023-04-25T04:37:01.638Z,7.92
2023-04-25T04:42:07.779Z,7.98
2023-04-25T04:47:11.799Z,8.06
2023-04-25T04:52:15.829Z,8.14
2023-04-25T04:57:20.637Z,8.22
2023-04-25T05:02:24.816Z,8.31
2023-04-25T05:07:28.734Z,8.42
2023-04-25T05:12:38.553Z,8.53
2023-04-25T05:17:42.864Z,8.72
2023-04-25T05:22:48.963Z,9.63
2023-04-25T05:27:54.550Z,13.48
2023-04-25T05:32:58.695Z,15.66
2023-04-25T05:38:02.013Z,17.03
2023-04-25T05:43:06.924Z,18.50
2023-04-25T05:48:10.795Z,20.35
2023-04-25T05:53:14.235Z,21.97
2023-04-25T05:58:19.990Z,23.31
2023-04-25T06:03:24.016Z,24.68
2023-04-25T06:08:27.958Z,25.62
2023-04-25T06:13:33.981Z,26.47
2023-04-25T06:18:37.424Z,27.60
2023-04-25T06:23:40.912Z,27.91
2023-04-25T06:28:47.116Z,27.65
2023-04-25T06:33:51.543Z,26.73
2023-04-25T06:38:55.468Z,24.21
2023-04-25T06:44:00.266Z,23.10
2023-04-25T06:49:03.444Z,22.24
2023-04-25T06:54:07.351Z,21.08
2023-04-25T06:59:12.013Z,20.18
2023-04-25T07:04:17.963Z,19.56
2023-04-25T07:09:21.704Z,18.72
2023-04-25T07:14:27.253Z,18.33
2023-04-25T07:19:30.956Z,17.78
2023-04-25T07:25:35.093Z,17.25
2023-04-25T07:30:49.835Z,16.61
2023-04-25T07:36:14.045Z,16.21
2023-04-25T07:41:23.531Z,15.76
2023-04-25T07:46:28.400Z,15.31
2023-04-25T07:51:32.702Z,14.97
2023-04-25T07:57:19.812Z,14.58
2023-04-25T08:02:27.555Z,14.32
2023-04-25T08:07:32.073Z,14.08
2023-04-25T08:12:36.055Z,13.94
2023-04-25T08:17:41.121Z,13.77
2023-04-25T08:22:45.283Z,13.89
2023-04-25T08:27:49.852Z,13.98
2023-04-25T08:38:12.534Z,13.93
2023-04-25T08:43:17.275Z,13.80
2023-04-25T08:48:24.064Z,13.82
2023-04-25T08:53:29.333Z,13.90
2023-04-25T08:58:34.925Z,13.98
2023-04-25T09:03:40.951Z,14.04
2023-04-25T09:08:44.785Z,14.08
2023-04-25T09:13:49.252Z,14.19
2023-04-25T09:18:54.896Z,14.29
2023-04-25T09:24:01.208Z,14.20
2023-04-25T09:29:08.432Z,14.26
2023-04-25T09:34:16.871Z,14.21
2023-04-25T09:39:24.061Z,14.01
2023-04-25T09:44:29.330Z,13.78
2023-04-25T09:49:34.892Z,13.83
2023-04-25T09:54:39.283Z,13.91
2023-04-25T09:59:48.181Z,14.05
2023-04-25T10:04:56.561Z,13.88
2023-04-25T10:10:04.974Z,13.78
2023-04-25T10:15:11.545Z,13.86
2023-04-25T10:20:16.856Z,13.84
2023-04-25T10:25:22.846Z,14.06
2023-04-25T10:30:27.038Z,14.16
2023-04-25T10:35:33.793Z,14.11
2023-04-25T10:40:37.311Z,13.97
2023-04-25T10:45:54.244Z,13.81
2023-04-25T10:51:11.397Z,13.74
2023-04-25T10:56:22.451Z,13.72
2023-04-25T11:01:27.684Z,13.70
2023-04-25T11:06:52.048Z,13.67
2023-04-25T11:11:57.523Z,13.64
2023-04-25T11:17:02.127Z,13.51
2023-04-25T11:22:07.925Z,13.35
2023-04-25T11:27:12.655Z,13.22
2023-04-25T11:32:21.662Z,13.11
2023-04-25T11:37:26.692Z,13.04
2023-04-25T11:42:30.430Z,13.09
2023-04-25T11:47:34.430Z,13.26
2023-04-25T11:52:40.500Z,13.41
2023-04-25T11:57:44.815Z,13.47
2023-04-25T12:02:50.056Z,13.40
2023-04-25T12:07:55.344Z,13.50
2023-04-25T12:13:01.533Z,13.56
2023-04-25T12:18:07.340Z,13.96
2023-04-25T12:23:15.659Z,14.23
2023-04-25T12:28:21.300Z,14.06
2023-04-25T12:33:25.121Z,13.88
2023-04-25T12:38:35.529Z,13.72
2023-04-25T12:43:38.998Z,13.62
2023-04-25T12:48:42.788Z,13.61
2023-04-25T12:53:47.912Z,13.65
2023-04-25T12:58:52.287Z,13.70
2023-04-25T13:03:56.680Z,13.66
2023-04-25T13:09:01.517Z,13.61
2023-04-25T13:14:05.270Z,13.57
2023-04-25T13:19:12.073Z,13.46
2023-04-25T13:24:17.429Z,13.43
2023-04-25T13:29:21.627Z,13.50
2023-04-25T13:34:25.675Z,13.80
2023-04-25T13:39:31.012Z,14.05
2023-04-25T13:44:34.647Z,14.19
2023-04-25T13:49:38.571Z,14.24
2023-04-25T13:54:44.361Z,14.25
2023-04-25T13:59:48.460Z,14.29
2023-04-25T14:04:55.081Z,14.22
2023-04-25T14:10:00.811Z,14.34
2023-04-25T14:15:22.904Z,14.32
2023-04-25T14:20:45.048Z,14.35
2023-04-25T14:26:25.529Z,14.35
2023-04-25T14:31:47.982Z,14.27
2023-04-25T14:37:10.908Z,14.24
2023-04-25T14:42:35.657Z,14.29
2023-04-25T14:47:40.726Z,14.34
2023-04-25T14:52:44.233Z,14.35
2023-04-25T14:57:49.728Z,14.32
2023-04-25T15:02:53.996Z,14.35
2023-04-25T15:08:19.965Z,14.22
2023-04-25T15:13:45.610Z,14.17
2023-04-25T15:19:09.929Z,14.10
2023-04-25T15:24:32.979Z,14.08
2023-04-25T15:29:37.983Z,14.10
2023-04-25T15:34:41.502Z,14.08
2023-04-25T15:39:46.643Z,14.07
2023-04-25T15:44:51.650Z,14.04
2023-04-25T15:49:54.968Z,13.96
2023-04-25T15:54:58.909Z,13.91
2023-04-25T16:00:13.284Z,13.83
2023-04-25T16:05:29.276Z,13.70
2023-04-25T16:10:33.098Z,13.53
2023-04-25T16:15:58.370Z,13.42
2023-04-25T16:21:02.093Z,13.31
2023-04-25T16:26:05.716Z,13.25
2023-04-25T16:31:10.829Z,13.18
2023-04-25T16:36:14.892Z,13.14
2023-04-25T16:41:19.026Z,13.09
2023-04-25T16:46:24.125Z,12.98
2023-04-25T16:51:40.491Z,12.90
2023-04-25T16:56:49.304Z,12.82
2023-04-25T17:02:12.371Z,12.79
2023-04-25T17:07:16.074Z,12.67
2023-04-25T17:12:21.935Z,12.56
2023-04-25T17:17:27.298Z,12.50
2023-04-25T17:22:35.247Z,12.39
2023-04-25T17:27:39.125Z,12.32
2023-04-25T17:32:43.983Z,12.28
2023-04-25T17:37:48.860Z,12.22
2023-04-25T17:42:55.425Z,12.09
2023-04-25T17:48:02.710Z,11.88
2023-04-25T17:53:06.134Z,11.68
2023-04-25T17:58:10.146Z,11.53
2023-04-25T18:03:17.681Z,11.32
2023-04-25T18:08:22.792Z,11.14
2023-04-25T18:13:27.707Z,11.01
2023-04-25T18:18:34.744Z,10.87
2023-04-25T18:23:39.713Z,10.74
2023-04-25T18:28:45.475Z,10.68
2023-04-25T18:33:51.786Z,10.62
2023-04-25T18:39:05.432Z,10.61
2023-04-25T18:44:15.440Z,10.62
2023-04-25T18:49:21.649Z,10.60
2023-04-25T18:54:29.171Z,10.55
2023-04-25T18:59:33.836Z,10.51
2023-04-25T19:04:57.208Z,10.51
2023-04-25T19:10:11.131Z,10.49
2023-04-25T19:15:27.297Z,10.52
2023-04-25T19:20:53.964Z,10.53
2023-04-25T19:26:07.077Z,10.53
2023-04-25T19:31:17.899Z,10.54
2023-04-25T19:36:26.019Z,10.57
2023-04-25T19:41:36.172Z,10.56
2023-04-25T19:46:44.200Z,10.54
2023-04-25T19:51:55.918Z,10.49
2023-04-25T19:57:00.526Z,10.44
2023-04-25T20:02:07.251Z,10.32
2023-04-25T20:07:12.581Z,10.27
2023-04-25T20:12:16.615Z,10.21
2023-04-25T20:17:20.103Z,10.17
2023-04-25T20:22:25.774Z,10.13
2023-04-25T20:27:29.899Z,10.13
2023-04-25T20:32:38.042Z,10.01
2023-04-25T20:37:43.826Z,9.92
2023-04-25T20:42:48.931Z,9.83
2023-04-25T20:47:53.680Z,9.78
2023-04-25T20:52:58.534Z,9.71
2023-04-25T20:58:08.503Z,9.60
2023-04-25T21:03:13.255Z,9.60
2023-04-25T21:08:18.730Z,9.64
2023-04-25T21:13:24.278Z,9.68
2023-04-25T21:18:30.130Z,9.69
2023-04-25T21:23:38.132Z,9.72
2023-04-25T21:28:41.906Z,9.72
2023-04-25T21:33:45.513Z,9.71
2023-04-25T21:38:50.461Z,9.73
2023-04-25T21:43:54.294Z,9.68
2023-04-25T21:48:57.751Z,9.64
2023-04-25T21:54:05.439Z,9.60
2023-04-25T21:59:08.950Z,9.59
2023-04-25T22:04:12.984Z,9.52
2023-04-25T22:09:18.474Z,9.41
2023-04-25T22:14:23.228Z,9.27
2023-04-25T22:19:28.493Z,9.22
2023-04-25T22:24:33.306Z,9.25
2023-04-25T22:29:42.255Z,9.16
2023-04-25T22:34:46.155Z,9.13
2023-04-25T22:39:53.142Z,9.13
2023-04-25T22:44:56.581Z,9.00
2023-04-25T22:50:00.543Z,8.89
2023-04-25T22:55:05.994Z,8.76
2023-04-25T23:00:16.008Z,8.72
2023-04-25T23:05:20.389Z,8.68
2023-04-25T23:10:26.026Z,8.64
2023-04-25T23:15:39.709Z,8.57
2023-04-25T23:20:43.304Z,8.41
2023-04-25T23:25:49.250Z,8.29
2023-04-25T23:30:53.110Z,8.22
2023-04-25T23:35:56.817Z,8.17
2023-04-25T23:41:03.423Z,8.07
2023-04-25T23:46:10.145Z,8.01
2023-04-25T23:51:14.234Z,8.02
2023-04-25T23:56:19.256Z,8.05
